Herscher, Illinois
Current Conditions -  °F | °C
As of 8:15 AM on Saturday 25 Oct 2014 (Local Time) from KIKK Reporting Station
Haze Haze  
Wind Chill: 55°   Ceiling: 400
Heat Index: 55°   Visibility: 2.5mi
Dew Point: 55°   Wind: 7mph
Humidity: 97%   Direction: 280°W
Pressure: 29.96"   Gusts: NA
Location:  41.05°N, 88.1°W
Report Text: KIKK 251315Z AUTO 28006KT 2 1/2SM BR OVC004 13/13 A2996 RMK AO2 T01290125
Loading
Personal Weather Stations






























Interactive Weather Map
Tropical Storm Tracking
New forecast layout! Learn more

10-Day Weather Forecast

Advertisements
Track Severe Weather on mobile